Thornton, United Kingdom
Current Conditions -  °F | °C
As of 11:20 AM on Friday 28 Nov 2014 (Local Time) from EGPH Reporting Station
Broken Clouds Broken Clouds  
Wind Chill:   Ceiling: 1400
Heat Index:   Visibility: 6mi
Dew Point:   Wind: 3mph
Humidity: 93%   Direction: 60°ENE
Pressure: 29.8"   Gusts: NA
Location:  56.17°N, 3.15°W
Report Text: EGPH 281120Z 06003KT 9999 BKN014 09/08 Q1009
Loading
Personal Weather Stations






























Interactive Weather Map New forecast layout! Learn more

10-Day Weather Forecast

Advertisements
Track Severe Weather on mobile